Time;durP1;ratioP1;P1;durP2;ratioP2;P2;SDS_P1;SDS_P2;PMS_P1;PMS_P2;Temp;Humidity;BMP_temperature;BMP_pressure;BME280_temperature;BME280_humidity;BME280_pressure;Samples;Min_cycle;Max_cycle;Signal;HPM_P1;HPM_P2
2022/05/06 00:02:21;;;;;;;0.73;0.68;;;;;;;11.02;100.00;100721.50;7391898;19;20010;-85
2022/05/06 00:04:47;;;;;;;0.55;0.47;;;;;;;11.15;100.00;100727.78;7390550;19;20018;-86
2022/05/06 00:07:14;;;;;;;3.50;0.88;;;;;;;11.33;100.00;100722.25;7389159;19;20345;-85
2022/05/06 00:09:41;;;;;;;1.40;1.30;;;;;;;11.35;100.00;100728.13;7390915;19;20041;-85
2022/05/06 00:12:09;;;;;;;2.40;0.68;;;;;;;11.45;100.00;100729.75;7390450;19;20014;-85
2022/05/06 00:14:35;;;;;;;0.40;0.38;;;;;;;11.48;100.00;100714.09;7390052;19;20015;-85
2022/05/06 00:17:02;;;;;;;3.72;2.03;;;;;;;11.56;100.00;100723.72;7390818;19;20018;-85
2022/05/06 00:19:28;;;;;;;2.67;1.23;;;;;;;11.58;100.00;100722.03;7390430;19;20019;-85
2022/05/06 00:21:55;;;;;;;1.73;0.90;;;;;;;11.62;100.00;100710.72;7389435;19;20027;-86
2022/05/06 00:24:21;;;;;;;0.95;0.85;;;;;;;11.67;100.00;100716.50;7392385;19;20015;-86
2022/05/06 00:26:47;;;;;;;3.83;0.77;;;;;;;11.71;100.00;100719.91;7395375;19;20341;-85
2022/05/06 00:29:14;;;;;;;1.75;1.13;;;;;;;11.80;100.00;100727.53;7400217;19;20042;-85
2022/05/06 00:31:40;;;;;;;2.33;0.95;;;;;;;11.86;100.00;100720.88;7397825;19;20018;-85
2022/05/06 00:34:08;;;;;;;0.73;0.73;;;;;;;11.87;100.00;100725.19;7398070;19;20014;-85
2022/05/06 00:36:35;;;;;;;1.88;1.48;;;;;;;11.86;100.00;100722.88;7396651;19;20014;-85
2022/05/06 00:39:03;;;;;;;6.22;1.25;;;;;;;11.93;100.00;100714.97;7396623;19;20479;-86
2022/05/06 00:41:33;;;;;;;1.15;0.90;;;;;;;11.99;100.00;100718.72;7397179;19;20021;-85
2022/05/06 00:43:59;;;;;;;1.15;0.75;;;;;;;12.07;100.00;100725.53;7399142;19;20014;-86
2022/05/06 00:46:26;;;;;;;3.08;0.77;;;;;;;12.09;100.00;100722.28;7401089;19;20606;-86
2022/05/06 00:48:55;;;;;;;2.78;1.40;;;;;;;12.19;100.00;100713.44;7398389;19;20014;-86
2022/05/06 00:51:21;;;;;;;3.38;1.38;;;;;;;12.19;100.00;100707.09;7397152;19;20082;-86
2022/05/06 00:53:47;;;;;;;4.78;0.75;;;;;;;12.15;100.00;100712.81;7396876;19;20039;-85
2022/05/06 00:56:16;;;;;;;2.95;1.00;;;;;;;12.13;100.00;100698.53;7400022;19;20336;-86
2022/05/06 00:58:44;;;;;;;1.70;0.73;;;;;;;12.17;100.00;100706.78;7398717;19;20025;-86
2022/05/06 01:01:11;;;;;;;5.95;1.60;;;;;;;12.22;100.00;100694.19;7396483;19;20019;-85
2022/05/06 01:03:37;;;;;;;1.88;0.98;;;;;;;12.19;100.00;100693.88;7396722;19;20019;-85
2022/05/06 01:06:07;;;;;;;0.70;0.70;;;;;;;12.27;100.00;100713.13;7399566;19;20042;-86
2022/05/06 01:08:34;;;;;;;;;;;;;;;12.31;100.00;100706.13;7396232;19;20029;-87
2022/05/06 01:11:01;;;;;;;0.60;0.60;;;;;;;12.53;100.00;100708.75;7393007;19;19914;-86
2022/05/06 01:13:28;;;;;;;1.55;1.00;;;;;;;12.43;100.00;100707.97;7394139;19;20006;-86
2022/05/06 01:15:56;;;;;;;2.17;1.27;;;;;;;12.38;100.00;100699.47;7396524;19;20018;-85
2022/05/06 01:18:27;;;;;;;0.77;0.30;;;;;;;12.37;100.00;100700.69;7394650;19;20018;-85
2022/05/06 01:20:58;;;;;;;1.15;0.57;;;;;;;12.44;100.00;100703.16;7395761;19;20019;-86
2022/05/06 01:23:24;;;;;;;1.95;0.50;;;;;;;12.49;100.00;100705.34;7396148;19;20007;-83
2022/05/06 01:25:51;;;;;;;7.63;1.38;;;;;;;12.50;100.00;100706.88;7397500;19;20019;-88
2022/05/06 01:28:20;;;;;;;2.10;0.88;;;;;;;12.50;100.00;100695.69;7395582;19;20014;-83
2022/05/06 01:30:47;;;;;;;4.35;1.17;;;;;;;12.55;100.00;100703.47;7399953;19;20070;-90
2022/05/06 01:33:17;;;;;;;1.65;1.00;;;;;;;12.56;100.00;100707.81;7395948;19;20021;-89
2022/05/06 01:35:52;;;;;;;1.73;0.77;;;;;;;12.54;100.00;100708.28;7398000;19;20042;-90
2022/05/06 01:38:49;;;;;;;1.00;0.80;;;;;;;12.59;100.00;100699.28;7398434;19;20099;-90
2022/05/06 01:41:21;;;;;;;1.30;0.55;;;;;;;12.61;100.00;100685.59;7401973;19;20410;-90
2022/05/06 01:44:09;;;;;;;0.68;0.68;;;;;;;12.59;100.00;100687.31;7397902;19;20026;-90
2022/05/06 01:46:38;;;;;;;5.03;0.52;;;;;;;12.53;100.00;100689.19;7396574;19;20021;-90
2022/05/06 01:49:09;;;;;;;1.45;0.68;;;;;;;12.42;100.00;100694.47;7399425;19;20010;-90
2022/05/06 01:51:38;;;;;;;2.20;1.00;;;;;;;12.47;100.00;100691.06;7398573;19;20028;-91
2022/05/06 01:54:08;;;;;;;4.93;1.15;;;;;;;12.49;100.00;100691.38;7396662;19;20014;-91
2022/05/06 01:56:36;;;;;;;1.95;0.93;;;;;;;12.55;100.00;100692.28;7398070;19;20018;-89
2022/05/06 01:59:03;;;;;;;3.95;1.38;;;;;;;12.56;100.00;100688.25;7398399;19;20054;-90
2022/05/06 02:01:32;;;;;;;4.47;1.05;;;;;;;12.58;100.00;100696.94;7397858;19;20011;-90
2022/05/06 02:06:44;;;;;;;1.65;1.27;;;;;;;12.61;100.00;100702.38;7396643;19;20034;-90
2022/05/06 02:09:16;;;;;;;;;;;;;;;12.62;100.00;100709.53;7391881;19;20018;-90
2022/05/06 02:12:02;;;;;;;1.17;0.70;;;;;;;12.64;100.00;100711.84;7396266;19;19921;-91
2022/05/06 02:14:50;;;;;;;1.92;1.25;;;;;;;12.74;100.00;100704.97;7397635;19;20007;-90
2022/05/06 02:17:39;;;;;;;0.95;0.30;;;;;;;12.76;100.00;100702.47;7397712;19;20074;-91
2022/05/06 02:20:31;;;;;;;2.15;0.77;;;;;;;12.75;100.00;100692.56;7397240;19;20018;-90
2022/05/06 02:22:58;;;;;;;1.55;1.00;;;;;;;12.67;100.00;100694.13;7398514;19;20378;-90
2022/05/06 02:25:54;;;;;;;6.60;0.95;;;;;;;12.67;100.00;100685.72;7398866;19;20010;-90
2022/05/06 02:28:29;;;;;;;0.55;0.55;;;;;;;12.64;100.00;100695.06;7393769;19;20077;-91
2022/05/06 02:33:46;;;;;;;2.40;1.38;;;;;;;12.63;100.00;100699.09;7395601;19;20517;-91
2022/05/06 02:36:34;;;;;;;5.28;0.60;;;;;;;12.62;100.00;100698.34;7396154;19;20010;-90
2022/05/06 02:39:01;;;;;;;2.75;0.95;;;;;;;12.70;100.00;100698.78;7393796;19;20022;-90
2022/05/06 02:41:30;;;;;;;4.45;1.20;;;;;;;12.67;100.00;100689.31;7394438;19;20025;-90
2022/05/06 02:43:57;;;;;;;7.32;0.75;;;;;;;12.73;100.00;100695.81;7395027;19;20007;-91
2022/05/06 02:46:27;;;;;;;3.72;1.52;;;;;;;12.71;100.00;100695.50;7398270;19;20038;-91
2022/05/06 02:48:55;;;;;;;9.77;1.00;;;;;;;12.70;100.00;100691.16;7396030;19;20010;-91
2022/05/06 02:51:21;;;;;;;0.77;0.60;;;;;;;12.67;100.00;100688.53;7397320;19;20018;-88
2022/05/06 02:53:48;;;;;;;1.65;1.05;;;;;;;12.68;100.00;100687.28;7396736;19;20022;-91
2022/05/06 02:56:19;;;;;;;1.15;1.05;;;;;;;12.65;100.00;100686.22;7398678;19;20030;-90
2022/05/06 02:58:50;;;;;;;1.40;1.10;;;;;;;12.65;100.00;100696.59;7396975;19;20007;-90
2022/05/06 03:01:17;;;;;;;0.77;0.77;;;;;;;12.61;100.00;100682.81;7396540;19;20014;-90
2022/05/06 03:03:46;;;;;;;4.72;0.90;;;;;;;12.62;100.00;100683.59;7395098;19;20018;-90
2022/05/06 03:06:18;;;;;;;3.60;1.23;;;;;;;12.61;100.00;100679.22;7397739;19;20364;-90
2022/05/06 03:08:45;;;;;;;4.57;1.35;;;;;;;12.59;100.00;100681.72;7393312;19;20014;-90
2022/05/06 03:11:13;;;;;;;1.00;0.70;;;;;;;12.55;100.00;100683.91;7394376;19;20021;-88
2022/05/06 03:13:46;;;;;;;1.30;0.93;;;;;;;12.52;100.00;100688.41;7394088;19;20030;-86
2022/05/06 03:16:16;;;;;;;6.63;0.73;;;;;;;12.59;100.00;100681.72;7394693;19;20395;-90
2022/05/06 03:18:42;;;;;;;5.07;0.98;;;;;;;12.57;100.00;100684.22;7394858;19;20674;-80
2022/05/06 03:21:09;;;;;;;2.60;0.75;;;;;;;12.48;100.00;100682.22;7394821;19;20018;-89
2022/05/06 03:23:37;;;;;;;5.38;1.20;;;;;;;12.47;100.00;100683.47;7391227;19;20019;-89
2022/05/06 03:26:03;;;;;;;1.55;1.02;;;;;;;12.48;100.00;100692.59;7392327;19;20011;-85
2022/05/06 03:28:32;;;;;;;2.65;0.45;;;;;;;12.47;100.00;100688.28;7390682;19;20018;-86
2022/05/06 03:31:00;;;;;;;1.70;0.52;;;;;;;12.45;100.00;100688.72;7396439;19;20037;-86
2022/05/06 03:33:36;;;;;;;6.60;1.05;;;;;;;12.48;100.00;100689.81;7391158;19;20014;-87
2022/05/06 03:36:18;;;;;;;3.03;0.80;;;;;;;12.50;100.00;100690.13;7394636;19;20468;-86
2022/05/06 03:39:02;;;;;;;3.20;1.02;;;;;;;12.49;100.00;100678.19;7392882;19;20014;-86
2022/05/06 03:41:32;;;;;;;1.38;1.13;;;;;;;12.47;100.00;100685.47;7390472;19;20083;-87
2022/05/06 03:43:59;;;;;;;1.88;0.77;;;;;;;12.48;100.00;100687.81;7390808;19;20015;-85
2022/05/06 03:46:25;;;;;;;4.40;0.77;;;;;;;12.47;100.00;100686.25;7394456;19;20373;-87
2022/05/06 03:48:52;;;;;;;1.33;0.65;;;;;;;12.52;100.00;100684.84;7391094;19;20042;-86
2022/05/06 03:51:23;;;;;;;8.70;0.88;;;;;;;12.49;100.00;100683.78;7391979;19;20464;-86
2022/05/06 03:54:18;;;;;;;2.97;1.50;;;;;;;12.41;100.00;100676.19;7389144;19;20015;-86
2022/05/06 03:56:45;;;;;;;1.20;0.63;;;;;;;12.38;100.00;100674.31;7388489;19;20081;-85
2022/05/06 03:59:11;;;;;;;0.90;0.85;;;;;;;12.38;100.00;100680.69;7392338;19;20368;-85
2022/05/06 04:01:42;;;;;;;8.55;1.15;;;;;;;12.34;100.00;100676.50;7387758;19;20356;-85
2022/05/06 04:04:13;;;;;;;16.13;1.40;;;;;;;12.34;100.00;100676.50;7390264;19;20034;-86
2022/05/06 04:06:40;;;;;;;3.10;0.82;;;;;;;12.34;100.00;100674.50;7388575;19;20551;-80
2022/05/06 04:09:07;;;;;;;7.55;0.93;;;;;;;12.28;100.00;100687.50;7385305;19;20047;-83
2022/05/06 04:11:37;;;;;;;1.55;0.75;;;;;;;12.26;100.00;100686.44;7384828;19;20040;-83
2022/05/06 04:14:06;;;;;;;2.42;0.65;;;;;;;12.25;100.00;100680.09;7388853;19;20014;-86
2022/05/06 04:16:36;;;;;;;3.15;1.35;;;;;;;12.31;100.00;100688.59;7395178;19;20111;-87
2022/05/06 04:19:05;;;;;;;3.25;0.60;;;;;;;12.27;100.00;100699.94;7384883;19;20044;-86
2022/05/06 04:24:19;;;;;;;3.22;0.95;;;;;;;12.28;100.00;100689.56;7384193;19;20010;-82
2022/05/06 04:26:45;;;;;;;2.47;0.70;;;;;;;12.29;100.00;100691.09;7382367;19;20118;-82
2022/05/06 04:29:12;;;;;;;7.00;1.35;;;;;;;12.29;100.00;100699.47;7384401;19;20106;-82
2022/05/06 04:31:39;;;;;;;2.38;0.65;;;;;;;12.24;100.00;100692.47;7388366;19;20121;-82
2022/05/06 04:34:09;;;;;;;4.72;1.35;;;;;;;12.28;100.00;100707.06;7386625;19;20472;-82
2022/05/06 04:36:39;;;;;;;1.75;0.70;;;;;;;12.25;100.00;100702.41;7383287;19;20030;-81
2022/05/06 04:39:05;;;;;;;11.05;2.53;;;;;;;12.31;100.00;100702.56;7382420;19;20029;-82
2022/05/06 04:41:37;;;;;;;2.10;0.68;;;;;;;12.36;100.00;100697.13;7382389;19;20528;-82
2022/05/06 04:44:04;;;;;;;1.20;0.80;;;;;;;12.42;100.00;100692.47;7382692;19;20575;-83
2022/05/06 04:46:33;;;;;;;6.25;1.15;;;;;;;12.45;100.00;100682.38;7382087;19;20011;-82
2022/05/06 04:49:01;;;;;;;2.55;0.40;;;;;;;12.39;100.00;100679.44;7383497;19;20034;-81
2022/05/06 04:51:27;;;;;;;1.45;0.75;;;;;;;12.35;100.00;100692.78;7390336;19;20812;-84
2022/05/06 04:53:55;;;;;;;1.33;0.63;;;;;;;12.31;100.00;100691.38;7388118;19;20082;-85
2022/05/06 04:56:22;;;;;;;1.40;1.30;;;;;;;12.32;100.00;100690.16;7384644;19;20046;-85
2022/05/06 04:58:50;;;;;;;2.05;1.27;;;;;;;12.30;100.00;100684.28;7382203;19;20023;-87
2022/05/06 05:01:25;;;;;;;2.92;1.08;;;;;;;12.28;100.00;100683.97;7389357;19;20006;-86
2022/05/06 05:03:51;;;;;;;1.00;0.70;;;;;;;12.26;100.00;100686.44;7390162;19;20011;-86
2022/05/06 05:06:18;;;;;;;4.82;1.00;;;;;;;12.30;100.00;100690.59;7391744;19;20015;-87
2022/05/06 05:08:47;;;;;;;5.78;1.02;;;;;;;12.39;100.00;100685.00;7388879;19;20093;-88
2022/05/06 05:11:15;;;;;;;5.25;1.45;;;;;;;12.53;100.00;100686.41;7392995;19;20014;-86
2022/05/06 05:13:48;;;;;;;1.98;0.98;;;;;;;12.60;100.00;100694.47;7393375;19;20086;-85
2022/05/06 05:16:27;;;;;;;2.08;0.63;;;;;;;12.70;100.00;100684.81;7397534;19;20350;-85
2022/05/06 05:18:53;;;;;;;1.95;1.10;;;;;;;12.68;100.00;100684.50;7394423;19;20019;-85
2022/05/06 05:21:20;;;;;;;4.10;0.90;;;;;;;12.72;100.00;100685.09;7393361;19;20435;-87
2022/05/06 05:23:48;;;;;;;2.75;1.23;;;;;;;12.73;100.00;100692.25;7394086;19;20014;-87
2022/05/06 05:26:15;;;;;;;0.90;0.68;;;;;;;12.72;100.00;100682.31;7399482;19;20021;-86
2022/05/06 05:28:42;;;;;;;2.60;1.35;;;;;;;12.71;100.00;100687.13;7395269;19;20010;-86
2022/05/06 05:31:08;;;;;;;1.27;0.85;;;;;;;12.66;100.00;100687.78;7395359;19;20035;-85
2022/05/06 05:33:38;;;;;;;2.20;1.27;;;;;;;12.67;100.00;100703.28;7393538;19;20471;-85
2022/05/06 05:36:05;;;;;;;0.57;0.57;;;;;;;12.73;100.00;100697.84;7395940;19;20011;-85
2022/05/06 05:38:31;;;;;;;1.45;0.88;;;;;;;12.76;100.00;100697.66;7394489;19;20021;-85
2022/05/06 05:40:59;;;;;;;1.23;0.57;;;;;;;12.80;100.00;100698.28;7395823;19;20408;-85
2022/05/06 05:49:02;;;;;;;8.27;1.65;;;;;;;13.01;100.00;100685.31;7391120;19;20014;-84
2022/05/06 05:51:29;;;;;;;4.70;1.00;;;;;;;13.14;100.00;100683.13;7392702;19;20201;-85
2022/05/06 05:53:59;;;;;;;2.45;1.35;;;;;;;13.19;100.00;100679.66;7391444;19;20022;-85
2022/05/06 05:56:30;;;;;;;1.80;1.17;;;;;;;13.28;100.00;100678.84;7394682;19;20017;-86
2022/05/06 05:58:57;;;;;;;4.45;1.92;;;;;;;13.36;100.00;100682.88;7395091;19;20093;-86
2022/05/06 06:01:24;;;;;;;3.70;1.73;;;;;;;13.46;100.00;100676.75;7392433;19;20019;-82
2022/05/06 06:03:51;;;;;;;2.92;1.48;;;;;;;13.56;100.00;100678.22;7390901;19;20027;-86
2022/05/06 06:06:18;;;;;;;5.70;1.45;;;;;;;13.59;100.00;100668.09;7396388;19;20010;-85
2022/05/06 06:08:48;;;;;;;7.32;1.75;;;;;;;13.59;100.00;100680.09;7393067;19;20025;-86
2022/05/06 06:11:14;;;;;;;1.65;1.25;;;;;;;13.61;100.00;100674.00;7395540;19;20464;-88
2022/05/06 06:13:44;;;;;;;4.75;1.60;;;;;;;13.60;100.00;100676.00;7399747;19;20073;-87
2022/05/06 06:16:17;;;;;;;2.60;0.90;;;;;;;13.61;100.00;100671.97;7398109;19;20075;-87
2022/05/06 06:18:43;;;;;;;4.65;1.45;;;;;;;13.69;100.00;100675.97;7396628;19;20038;-87
2022/05/06 06:21:10;;;;;;;4.13;1.10;;;;;;;13.78;100.00;100674.34;7395385;19;20010;-87
2022/05/06 06:23:37;;;;;;;6.35;1.52;;;;;;;13.93;100.00;100661.16;7392008;19;20376;-86
2022/05/06 06:26:03;;;;;;;1.60;0.95;;;;;;;14.01;100.00;100659.56;7395712;19;20014;-87
2022/05/06 06:28:30;;;;;;;4.32;1.60;;;;;;;14.08;100.00;100659.16;7390917;19;20018;-86
2022/05/06 06:30:57;;;;;;;4.03;0.75;;;;;;;14.13;100.00;100666.91;7398931;19;20015;-87
2022/05/06 06:33:23;;;;;;;11.77;2.20;;;;;;;14.10;100.00;100662.25;7389397;19;20022;-83
2022/05/06 06:35:49;;;;;;;3.47;1.15;;;;;;;14.08;100.00;100665.53;7387211;19;20639;-81
2022/05/06 06:38:15;;;;;;;5.22;1.15;;;;;;;14.14;100.00;100665.66;7387690;19;20019;-82
2022/05/06 06:40:43;;;;;;;4.45;1.05;;;;;;;14.29;100.00;100669.28;7385653;19;20026;-82
2022/05/06 06:43:09;;;;;;;3.00;1.23;;;;;;;14.47;100.00;100666.28;7388930;19;20472;-81
2022/05/06 06:45:53;;;;;;;2.35;1.00;;;;;;;14.60;100.00;100677.22;7389490;19;20022;-81
2022/05/06 06:48:35;;;;;;;6.47;1.23;;;;;;;14.75;100.00;100670.34;7385784;19;20015;-80
2022/05/06 06:51:10;;;;;;;19.48;1.55;;;;;;;14.89;100.00;100672.38;7388682;19;20018;-82
2022/05/06 06:53:53;;;;;;;3.75;1.63;;;;;;;15.01;100.00;100674.09;7388111;19;20011;-80
2022/05/06 06:56:21;;;;;;;6.47;0.90;;;;;;;15.24;100.00;100677.25;7389300;19;20007;-82
2022/05/06 06:58:47;;;;;;;5.10;1.20;;;;;;;15.49;100.00;100676.59;7391089;19;20382;-82
2022/05/06 07:01:13;;;;;;;0.43;0.43;;;;;;;15.68;100.00;100680.72;7386126;19;20106;-81
2022/05/06 07:03:39;;;;;;;4.30;1.25;;;;;;;15.73;100.00;100677.97;7388567;19;20776;-83
2022/05/06 07:11:53;;;;;;;3.90;1.73;;;;;;;15.78;100.00;100673.69;7384884;19;20019;-80
2022/05/06 07:14:21;;;;;;;3.63;1.10;;;;;;;15.76;100.00;100660.16;7385272;19;20023;-81
2022/05/06 07:16:48;;;;;;;6.55;1.38;;;;;;;15.93;100.00;100671.56;7387694;19;20038;-80
2022/05/06 07:19:15;;;;;;;2.13;1.15;;;;;;;16.08;100.00;100674.28;7386334;19;20086;-83
2022/05/06 07:21:41;;;;;;;2.60;0.93;;;;;;;16.37;100.00;100672.06;7387839;19;20026;-82
2022/05/06 07:24:08;;;;;;;4.00;1.17;;;;;;;16.62;100.00;100668.50;7387529;19;20030;-82
2022/05/06 07:26:34;;;;;;;4.18;0.90;;;;;;;16.68;100.00;100663.69;7385484;19;20024;-82
2022/05/06 07:29:00;;;;;;;5.57;1.73;;;;;;;16.49;100.00;100659.66;7388984;19;20122;-82
2022/05/06 07:31:26;;;;;;;2.05;0.98;;;;;;;16.59;100.00;100658.25;7386900;19;20015;-82
2022/05/06 07:33:53;;;;;;;1.55;1.02;;;;;;;16.80;100.00;100661.75;7388223;19;20014;-81
2022/05/06 07:36:19;;;;;;;2.47;0.90;;;;;;;16.90;100.00;100654.69;7388866;19;20018;-83
2022/05/06 07:38:45;;;;;;;1.45;0.52;;;;;;;16.95;100.00;100645.50;7386794;19;20038;-83
2022/05/06 07:41:12;;;;;;;2.03;0.63;;;;;;;17.10;100.00;100653.78;7385717;19;20014;-83
2022/05/06 07:43:38;;;;;;;2.28;0.80;;;;;;;17.28;100.00;100662.63;7387324;19;20042;-82
2022/05/06 07:46:04;;;;;;;2.03;0.93;;;;;;;17.31;100.00;100660.84;7388615;19;20107;-82
2022/05/06 07:48:30;;;;;;;2.75;0.55;;;;;;;17.37;100.00;100658.81;7385870;19;20245;-81
2022/05/06 07:50:57;;;;;;;6.75;1.67;;;;;;;17.53;100.00;100661.00;7384060;19;20338;-82
2022/05/06 07:53:23;;;;;;;2.55;0.88;;;;;;;17.62;100.00;100652.34;7384576;19;20022;-83
2022/05/06 07:55:54;;;;;;;5.80;1.25;;;;;;;17.79;100.00;100644.75;7385425;19;20047;-83
2022/05/06 07:58:21;;;;;;;;;;;;;;;18.00;100.00;100634.03;7389298;19;20019;-79
2022/05/06 08:00:50;;;;;;;1.58;1.48;;;;;;;17.93;100.00;100626.84;7389262;19;19925;-81
2022/05/06 08:06:03;;;;;;;1.40;0.35;;;;;;;17.82;100.00;100638.06;7389210;19;20023;-82
2022/05/06 08:08:30;;;;;;;2.88;0.47;;;;;;;17.74;100.00;100637.03;7386248;19;20019;-81
2022/05/06 08:10:56;;;;;;;2.15;0.70;;;;;;;17.68;100.00;100636.25;7383431;19;20011;-83
2022/05/06 08:13:23;;;;;;;3.45;1.00;;;;;;;17.66;100.00;100635.19;7381553;19;20019;-81
2022/05/06 08:15:50;;;;;;;2.03;0.82;;;;;;;17.49;100.00;100643.53;7385512;19;20037;-82
2022/05/06 08:18:17;;;;;;;2.58;0.65;;;;;;;17.33;100.00;100641.41;7383854;19;20086;-83
2022/05/06 08:20:43;;;;;;;3.83;0.63;;;;;;;17.42;100.00;100644.78;7385680;19;20038;-83
2022/05/06 08:23:10;;;;;;;1.27;0.70;;;;;;;17.50;100.00;100633.84;7386335;19;20029;-83
2022/05/06 08:25:36;;;;;;;3.75;1.35;;;;;;;17.62;100.00;100632.63;7387845;19;20018;-82
2022/05/06 08:28:03;;;;;;;1.33;0.40;;;;;;;17.66;100.00;100619.06;7382664;19;20010;-80
2022/05/06 08:30:29;;;;;;;1.42;0.47;;;;;;;17.83;100.00;100624.75;7385286;19;20014;-81
2022/05/06 08:32:56;;;;;;;1.83;0.65;;;;;;;17.77;100.00;100630.38;7383736;19;20022;-79
2022/05/06 08:35:22;;;;;;;4.53;1.38;;;;;;;17.60;100.00;100631.59;7382548;19;20015;-84
2022/05/06 08:37:49;;;;;;;1.92;0.68;;;;;;;17.49;100.00;100631.50;7384155;19;20022;-80
2022/05/06 08:40:19;;;;;;;1.08;0.57;;;;;;;17.53;100.00;100638.47;7384650;19;20023;-81
2022/05/06 08:42:49;;;;;;;;;;;;;;;17.52;100.00;100636.16;7385437;19;20046;-81
2022/05/06 08:50:53;;;;;;;0.82;0.57;;;;;;;17.60;100.00;100623.16;7393603;19;20511;-82
2022/05/06 08:53:28;;;;;;;2.15;0.52;;;;;;;17.75;100.00;100632.16;7390206;19;20361;-81
2022/05/06 08:55:56;;;;;;;2.72;0.77;;;;;;;17.78;100.00;100631.91;7393884;19;20037;-81
2022/05/06 08:58:24;;;;;;;1.35;0.52;;;;;;;17.95;100.00;100641.19;7392643;19;20039;-81
2022/05/06 09:01:03;;;;;;;1.50;0.50;;;;;;;17.88;100.00;100624.78;7397842;19;20020;-80
2022/05/06 09:03:30;;;;;;;2.58;1.05;;;;;;;17.90;100.00;100621.47;7391006;19;20018;-80
2022/05/06 09:05:59;;;;;;;1.35;0.28;;;;;;;18.11;100.00;100632.03;7392940;19;20018;-80
2022/05/06 09:08:42;;;;;;;2.05;0.63;;;;;;;18.64;100.00;100627.50;7388633;19;20018;-80
2022/05/06 09:11:09;;;;;;;0.68;0.52;;;;;;;19.21;100.00;100638.25;7389256;19;20835;-81
2022/05/06 09:13:51;;;;;;;1.73;1.02;;;;;;;19.77;100.00;100636.06;7389338;19;20381;-86
2022/05/06 09:16:43;;;;;;;2.13;0.60;;;;;;;20.01;100.00;100628.47;7394094;19;20018;-81
2022/05/06 09:19:20;;;;;;;3.60;0.88;;;;;;;20.00;100.00;100629.75;7390413;19;20493;-81
2022/05/06 09:22:09;;;;;;;1.00;0.40;;;;;;;19.86;100.00;100644.25;7392460;19;20414;-82
2022/05/06 09:24:37;;;;;;;1.75;0.40;;;;;;;19.65;100.00;100640.97;7392059;19;20365;-81
2022/05/06 09:27:14;;;;;;;4.40;1.05;;;;;;;19.41;100.00;100635.91;7389281;19;20476;-82
2022/05/06 09:29:41;;;;;;;1.23;0.38;;;;;;;19.42;100.00;100634.63;7392205;19;20450;-83
2022/05/06 09:32:23;;;;;;;0.43;0.20;;;;;;;19.48;100.00;100632.56;7392723;19;20102;-82
2022/05/06 09:34:58;;;;;;;2.67;0.63;;;;;;;19.15;100.00;100631.81;7390442;19;20586;-84
2022/05/06 09:37:36;;;;;;;1.58;0.75;;;;;;;19.20;100.00;100633.88;7391523;19;20018;-80
2022/05/06 09:40:06;;;;;;;1.45;0.45;;;;;;;19.79;100.00;100630.66;7388117;19;20330;-82
2022/05/06 09:42:33;;;;;;;2.33;0.45;;;;;;;20.21;100.00;100628.13;7389800;19;20026;-81
2022/05/06 09:45:01;;;;;;;0.95;0.20;;;;;;;20.48;100.00;100626.41;7388562;19;20018;-82
2022/05/06 09:47:27;;;;;;;0.82;0.40;;;;;;;20.53;100.00;100625.56;7384011;19;20077;-82
2022/05/06 09:49:53;;;;;;;1.00;0.32;;;;;;;20.48;100.00;100626.41;7387842;19;20025;-83
2022/05/06 09:52:19;;;;;;;1.40;0.68;;;;;;;20.35;100.00;100634.72;7390420;19;20646;-83
2022/05/06 09:54:48;;;;;;;0.57;0.28;;;;;;;20.15;100.00;100633.03;7387377;19;20487;-82
2022/05/06 09:57:18;;;;;;;1.73;0.30;;;;;;;19.95;100.00;100638.25;7382011;19;20025;-82
2022/05/06 09:59:45;;;;;;;0.45;0.40;;;;;;;19.63;100.00;100644.31;7388666;19;20523;-84
2022/05/06 10:02:13;;;;;;;1.13;0.52;;;;;;;19.45;100.00;100639.22;7386201;19;20037;-82
2022/05/06 10:04:40;;;;;;;0.45;0.25;;;;;;;19.43;100.00;100630.50;7385834;19;20018;-82
2022/05/06 10:07:11;;;;;;;4.25;0.40;;;;;;;19.63;100.00;100630.19;7387249;19;20102;-82
2022/05/06 10:09:57;;;;;;;;;;;;;;;19.76;100.00;100626.03;7390327;19;20018;-84
2022/05/06 10:12:25;;;;;;;3.15;0.68;;;;;;;19.94;100.00;100633.91;7387860;19;20365;-83
2022/05/06 10:14:53;;;;;;;1.98;0.50;;;;;;;20.10;100.00;100630.22;7390205;19;20018;-83
2022/05/06 10:18:02;;;;;;;1.60;0.60;;;;;;;20.43;100.00;100624.38;7388796;19;20539;-82
2022/05/06 10:20:37;;;;;;;1.25;0.13;;;;;;;20.39;100.00;100636.00;7386150;19;20018;-83
2022/05/06 10:23:15;;;;;;;0.28;0.22;;;;;;;20.23;100.00;100638.91;7384850;19;20029;-82
2022/05/06 10:25:41;;;;;;;0.30;0.20;;;;;;;20.05;100.00;100640.28;7389562;19;20479;-83
2022/05/06 10:34:30;;;;;;;0.68;0.35;;;;;;;19.53;100.00;100626.09;7384151;19;20030;-83
2022/05/06 10:37:01;;;;;;;1.55;0.20;;;;;;;19.41;100.00;100633.09;7388298;19;20014;-83
2022/05/06 10:39:33;;;;;;;3.10;0.90;;;;;;;19.23;100.00;100622.31;7389408;19;20015;-83
2022/05/06 10:42:11;;;;;;;1.33;0.50;;;;;;;19.26;100.00;100631.81;7387807;19;20023;-83
2022/05/06 10:44:44;;;;;;;2.30;0.43;;;;;;;19.39;100.00;100627.19;7388395;19;20766;-82
2022/05/06 10:47:33;;;;;;;0.10;0.10;;;;;;;19.43;100.00;100619.22;7388227;19;20018;-83
2022/05/06 10:50:13;;;;;;;0.55;0.20;;;;;;;19.49;100.00;100622.78;7388174;19;20015;-82
2022/05/06 10:52:40;;;;;;;2.03;0.30;;;;;;;19.53;100.00;100631.00;7393587;19;20014;-84
2022/05/06 10:55:07;;;;;;;5.82;0.25;;;;;;;19.61;100.00;100621.47;7390412;19;20017;-82
2022/05/06 10:57:51;;;;;;;0.70;0.40;;;;;;;19.60;100.00;100616.31;7389173;19;20098;-83
2022/05/06 11:00:20;;;;;;;0.75;0.20;;;;;;;19.62;100.00;100620.16;7390861;19;20022;-82
2022/05/06 11:02:46;;;;;;;2.25;0.30;;;;;;;19.56;100.00;100615.81;7386522;19;20018;-82
2022/05/06 11:05:15;;;;;;;0.98;0.30;;;;;;;19.42;100.00;100628.22;7387608;19;20034;-83
2022/05/06 11:07:44;;;;;;;0.98;0.22;;;;;;;19.46;100.00;100623.84;7386905;19;20018;-81
2022/05/06 11:10:22;;;;;;;1.13;0.10;;;;;;;19.59;100.00;100626.88;7390800;19;20697;-84
2022/05/06 11:12:53;;;;;;;2.08;0.60;;;;;;;19.80;100.00;100618.03;7388666;19;20045;-85
2022/05/06 11:15:22;;;;;;;3.30;0.68;;;;;;;19.89;100.00;100623.38;7392924;19;20085;-85
2022/05/06 11:17:49;;;;;;;5.57;0.77;;;;;;;19.96;100.00;100632.09;7389359;19;20018;-83
2022/05/06 11:20:17;;;;;;;3.30;0.73;;;;;;;20.25;100.00;100625.00;7387862;19;20021;-84
2022/05/06 11:23:03;;;;;;;6.40;0.60;;;;;;;20.60;100.00;100627.84;7389519;19;20029;-84
2022/05/06 11:25:31;;;;;;;8.32;0.98;;;;;;;20.78;100.00;100632.84;7389292;19;20047;-87
2022/05/06 11:27:59;;;;;;;9.15;1.55;;;;;;;21.00;100.00;100621.34;7388394;19;20014;-83
2022/05/06 11:30:28;;;;;;;10.93;0.50;;;;;;;21.34;100.00;100621.78;7389078;19;20011;-86
2022/05/06 11:32:59;;;;;;;3.08;0.30;;;;;;;21.49;100.00;100618.50;7387833;19;20022;-84
2022/05/06 11:35:27;;;;;;;0.63;0.15;;;;;;;21.25;100.00;100624.19;7389161;19;20042;-85
2022/05/06 11:37:55;;;;;;;2.03;0.35;;;;;;;21.25;100.00;100624.97;7387134;19;20020;-87
2022/05/06 11:40:35;;;;;;;0.75;0.13;;;;;;;21.41;100.00;100626.09;7388824;19;20376;-84
2022/05/06 11:43:06;;;;;;;;;;;;;;;21.52;100.00;100623.13;7387704;19;20029;-82
2022/05/06 11:48:24;;;;;;;1.17;0.17;;;;;;;21.21;100.00;100618.81;7392581;19;20026;-88
2022/05/06 11:50:56;;;;;;;0.70;0.40;;;;;;;21.05;100.00;100622.63;7388950;19;20516;-84
2022/05/06 11:53:27;;;;;;;2.83;0.63;;;;;;;20.79;100.00;100617.38;7385580;19;20018;-81
2022/05/06 11:55:55;;;;;;;1.75;0.43;;;;;;;20.58;100.00;100615.50;7389424;19;20021;-79
2022/05/06 11:58:24;;;;;;;0.57;0.10;;;;;;;20.55;100.00;100619.41;7382930;19;20045;-78
2022/05/06 12:00:52;;;;;;;0.63;0.20;;;;;;;20.51;100.00;100614.03;7390195;19;20333;-79
2022/05/06 12:03:19;;;;;;;0.13;0.00;;;;;;;20.44;100.00;100617.44;7385680;19;20073;-81
2022/05/06 12:05:59;;;;;;;0.38;0.15;;;;;;;20.39;100.00;100619.00;7385783;19;20483;-79
2022/05/06 12:08:28;;;;;;;0.88;0.20;;;;;;;20.33;100.00;100614.69;7385695;19;20019;-78
2022/05/06 12:10:58;;;;;;;0.50;0.20;;;;;;;20.27;100.00;100611.88;7389780;19;20496;-86